Time;durP1;ratioP1;P1;durP2;ratioP2;P2;SDS_P1;SDS_P2;PMS_P1;PMS_P2;Temp;Humidity;BMP_temperature;BMP_pressure;BME280_temperature;BME280_humidity;BME280_pressure;Samples;Min_cycle;Max_cycle;Signal;HPM_P1;HPM_P2
2021/11/09 00:00:40;;;;;;;2.10;0.70;;;;;;;4.29;71.07;98494.38;4955089;28;20069;-75
2021/11/09 00:03:08;;;;;;;2.13;1.10;;;;;;;4.25;70.88;98499.00;4955163;28;20039;-75
2021/11/09 00:05:35;;;;;;;2.60;0.90;;;;;;;4.23;70.60;98498.25;4938093;29;20044;-77
2021/11/09 00:08:05;;;;;;;1.63;0.90;;;;;;;4.29;70.70;98500.44;4955385;29;20051;-73
2021/11/09 00:10:31;;;;;;;2.95;1.13;;;;;;;4.27;70.93;98498.88;4955039;28;20496;-73
2021/11/09 00:13:01;;;;;;;2.72;1.13;;;;;;;4.19;70.83;98502.03;4967105;28;20130;-77
2021/11/09 00:15:28;;;;;;;1.70;1.00;;;;;;;4.24;70.79;98497.31;4957525;28;20046;-76
2021/11/09 00:17:56;;;;;;;1.90;0.90;;;;;;;4.20;71.37;98506.34;4955584;28;20045;-75
2021/11/09 00:20:25;;;;;;;2.10;1.00;;;;;;;4.14;71.02;98501.53;4946359;28;20051;-76
2021/11/09 00:22:52;;;;;;;1.55;0.90;;;;;;;4.01;71.58;98501.53;4937532;28;20486;-81
2021/11/09 00:25:19;;;;;;;3.35;1.00;;;;;;;4.08;71.65;98507.19;4966925;28;20043;-76
2021/11/09 00:27:45;;;;;;;1.60;0.88;;;;;;;4.02;71.25;98503.19;4955558;29;20483;-75
2021/11/09 00:30:13;;;;;;;1.90;1.00;;;;;;;4.08;71.54;98507.19;4937249;29;20136;-74
2021/11/09 00:32:42;;;;;;;1.48;0.95;;;;;;;4.22;71.32;98514.91;4959930;28;20043;-74
2021/11/09 00:35:10;;;;;;;1.85;0.80;;;;;;;4.15;71.12;98516.25;4955672;28;20097;-76
2021/11/09 00:37:36;;;;;;;1.60;0.97;;;;;;;4.10;71.01;98513.13;4954659;28;20074;-76
2021/11/09 00:40:02;;;;;;;2.25;1.10;;;;;;;4.08;71.22;98507.19;4957482;29;20655;-80
2021/11/09 00:42:28;;;;;;;2.85;0.93;;;;;;;4.17;71.85;98524.84;4937462;29;20535;-75
2021/11/09 00:44:54;;;;;;;2.13;0.98;;;;;;;4.13;71.28;98513.75;4954265;29;20043;-78
2021/11/09 00:47:20;;;;;;;2.90;1.10;;;;;;;4.07;71.42;98521.22;4944552;28;20043;-77
2021/11/09 00:49:46;;;;;;;1.73;1.05;;;;;;;4.02;71.59;98519.72;4956139;28;20137;-75
2021/11/09 00:52:38;;;;;;;2.72;0.82;;;;;;;3.98;71.13;98517.44;4959203;28;20122;-76
2021/11/09 00:55:05;;;;;;;2.53;0.95;;;;;;;4.13;71.58;98526.00;4926000;29;20039;-75
2021/11/09 00:57:31;;;;;;;2.88;1.02;;;;;;;4.22;71.25;98525.38;4954594;28;20511;-73
2021/11/09 00:59:57;;;;;;;4.60;0.80;;;;;;;4.20;70.96;98530.72;4936642;29;20047;-78
2021/11/09 01:02:22;;;;;;;1.55;0.85;;;;;;;4.09;71.52;98529.75;4937489;29;20093;-74
2021/11/09 01:04:48;;;;;;;2.35;1.00;;;;;;;4.04;72.26;98533.53;4937365;29;20141;-76
2021/11/09 01:07:14;;;;;;;1.90;1.02;;;;;;;4.06;71.71;98536.03;4954128;28;20047;-76
2021/11/09 01:09:40;;;;;;;3.15;1.00;;;;;;;3.99;72.57;98529.59;4954214;28;20035;-75
2021/11/09 01:12:07;;;;;;;2.08;0.90;;;;;;;4.05;72.30;98535.22;4924119;28;20051;-76
2021/11/09 01:14:33;;;;;;;1.17;0.80;;;;;;;4.05;72.35;98534.41;4958701;28;20058;-76
2021/11/09 01:16:59;;;;;;;2.58;0.85;;;;;;;3.97;73.04;98536.69;4928206;28;20046;-75
2021/11/09 01:19:25;;;;;;;1.52;1.02;;;;;;;4.00;73.41;98542.56;4953229;28;20047;-76
2021/11/09 01:21:51;;;;;;;3.33;1.10;;;;;;;4.11;73.97;98546.19;4952534;28;20549;-75
2021/11/09 01:24:18;;;;;;;1.90;0.90;;;;;;;3.93;73.51;98551.75;4962035;28;20043;-75
2021/11/09 01:26:45;;;;;;;3.30;1.15;;;;;;;3.96;74.56;98548.94;4956280;28;20429;-74
2021/11/09 01:29:13;;;;;;;1.77;1.17;;;;;;;3.97;73.99;98547.97;4934710;28;20042;-75
2021/11/09 01:31:40;;;;;;;2.28;1.10;;;;;;;3.96;74.78;98548.94;4939259;29;20059;-75
2021/11/09 01:34:06;;;;;;;2.22;1.30;;;;;;;3.94;74.91;98557.81;4935720;29;20062;-75
2021/11/09 01:36:32;;;;;;;2.50;1.20;;;;;;;3.94;75.23;98563.03;4932595;29;20039;-74
2021/11/09 01:38:59;;;;;;;1.73;1.02;;;;;;;4.07;75.26;98563.06;4946662;29;20045;-75
2021/11/09 01:41:25;;;;;;;2.45;1.23;;;;;;;4.11;74.03;98554.06;4954530;28;20515;-74
2021/11/09 01:43:52;;;;;;;3.38;1.27;;;;;;;4.16;74.73;98568.50;4953691;29;20044;-75
2021/11/09 01:46:18;;;;;;;5.65;1.40;;;;;;;4.00;74.78;98568.72;4932614;29;20048;-75
2021/11/09 01:48:45;;;;;;;2.97;1.35;;;;;;;4.01;75.39;98575.63;4950035;29;20039;-75
2021/11/09 01:51:14;;;;;;;2.53;1.40;;;;;;;4.09;74.95;98566.41;4953046;28;20142;-75
2021/11/09 01:53:41;;;;;;;4.63;1.35;;;;;;;3.95;75.00;98576.03;4952933;29;20043;-76
2021/11/09 01:56:10;;;;;;;2.25;1.40;;;;;;;3.88;75.69;98575.59;4952719;28;20492;-76
2021/11/09 01:58:36;;;;;;;2.72;1.20;;;;;;;3.98;75.89;98581.06;4942420;28;20051;-73
2021/11/09 02:01:06;;;;;;;3.03;1.58;;;;;;;4.05;75.64;98576.25;4933236;29;20439;-73
2021/11/09 02:03:35;;;;;;;4.13;1.60;;;;;;;4.03;75.86;98584.19;4951565;28;20489;-74
2021/11/09 02:06:01;;;;;;;3.88;1.60;;;;;;;4.15;76.37;98576.44;4952572;29;20134;-73
2021/11/09 02:08:28;;;;;;;2.63;1.38;;;;;;;4.02;75.72;98587.75;4951404;28;20129;-75
2021/11/09 02:10:55;;;;;;;2.20;1.40;;;;;;;4.01;76.03;98599.16;4935758;29;20043;-75
2021/11/09 02:13:22;;;;;;;2.00;1.33;;;;;;;3.96;76.14;98601.25;4952403;29;20444;-74
2021/11/09 02:15:49;;;;;;;2.05;1.30;;;;;;;3.92;76.11;98602.38;4952556;28;20338;-75
2021/11/09 02:18:16;;;;;;;3.00;1.33;;;;;;;3.94;76.56;98603.13;4951773;28;20119;-74
2021/11/09 02:21:09;;;;;;;2.33;1.25;;;;;;;3.97;75.76;98616.00;4932205;29;20661;-73
2021/11/09 02:23:36;;;;;;;2.85;1.08;;;;;;;4.05;75.74;98618.94;4944530;28;20044;-74
2021/11/09 02:26:03;;;;;;;2.13;1.17;;;;;;;4.15;75.91;98626.16;4948614;28;20065;-75
2021/11/09 02:28:30;;;;;;;4.32;1.45;;;;;;;4.16;75.32;98625.22;4960686;28;20512;-77
2021/11/09 02:30:56;;;;;;;1.50;1.10;;;;;;;4.27;75.15;98632.34;4939541;28;20138;-73
2021/11/09 02:33:22;;;;;;;3.03;1.40;;;;;;;4.18;74.90;98639.06;4956571;29;20048;-71
2021/11/09 02:35:48;;;;;;;3.47;1.35;;;;;;;4.02;74.30;98637.44;4955166;28;20043;-74
2021/11/09 02:38:15;;;;;;;1.80;1.20;;;;;;;3.90;74.41;98654.00;4956564;28;20047;-73
2021/11/09 02:40:41;;;;;;;3.35;0.98;;;;;;;3.71;74.06;98663.03;4939874;28;20036;-75
2021/11/09 02:43:14;;;;;;;2.72;0.93;;;;;;;3.46;74.74;98660.31;4955962;29;20043;-74
2021/11/09 02:46:07;;;;;;;4.70;1.20;;;;;;;3.34;75.25;98683.69;4954592;28;20046;-74
2021/11/09 02:48:36;;;;;;;1.23;0.70;;;;;;;3.30;75.14;98679.63;4956728;28;20043;-72
2021/11/09 02:51:16;;;;;;;1.02;0.60;;;;;;;3.24;74.82;98690.44;4947911;28;20042;-77
2021/11/09 02:53:46;;;;;;;1.33;0.60;;;;;;;3.11;75.57;98689.53;4971762;28;20529;-74
2021/11/09 03:01:10;;;;;;;1.77;0.60;;;;;;;2.93;75.50;98702.81;4952922;28;20520;-78
2021/11/09 03:03:42;;;;;;;2.00;0.50;;;;;;;2.84;75.71;98714.66;4915703;29;20081;-78
2021/11/09 03:09:02;;;;;;;1.50;0.70;;;;;;;2.74;76.49;98729.16;4937404;28;20050;-75
2021/11/09 03:11:29;;;;;;;0.70;0.40;;;;;;;2.69;76.33;98739.91;4947838;28;20058;-79
2021/11/09 03:13:57;;;;;;;2.03;1.00;;;;;;;2.72;76.21;98731.88;4955170;29;20659;-74
2021/11/09 03:16:23;;;;;;;1.15;0.60;;;;;;;2.75;75.99;98755.22;4934843;29;20042;-77
2021/11/09 03:18:54;;;;;;;2.72;1.02;;;;;;;2.74;76.19;98752.66;4953422;29;20039;-76
2021/11/09 03:40:37;;;;;;;1.55;0.70;;;;;;;2.38;76.60;98811.31;4938277;29;20055;-76
2021/11/09 03:45:49;;;;;;;2.80;0.98;;;;;;;2.56;76.65;98830.31;4947823;29;20134;-80
2021/11/09 03:48:17;;;;;;;2.53;0.80;;;;;;;2.61;76.56;98825.66;4954364;28;20051;-77
2021/11/09 03:50:44;;;;;;;3.60;1.10;;;;;;;2.56;76.60;98832.91;4960363;28;20126;-77
2021/11/09 03:53:24;;;;;;;1.10;0.73;;;;;;;2.58;76.77;98836.28;4937410;29;20053;-78
2021/11/09 03:58:42;;;;;;;5.18;2.00;;;;;;;2.64;76.62;98854.22;4945300;28;20091;-76
2021/11/09 04:01:07;;;;;;;1.38;0.88;;;;;;;2.69;76.56;98856.53;4954317;28;20062;-76
2021/11/09 04:06:24;;;;;;;1.27;0.90;;;;;;;2.80;75.96;98869.81;4957895;28;20051;-77
2021/11/09 04:16:42;;;;;;;2.22;1.30;;;;;;;2.62;76.70;98896.97;4969639;28;20391;-76
2021/11/09 04:32:42;;;;;;;1.52;1.02;;;;;;;2.42;76.13;98954.59;4916700;29;20100;-75
2021/11/09 05:09:53;;;;;;;2.38;1.17;;;;;;;2.04;76.67;99051.41;4919624;29;21053;-83
2021/11/09 05:12:19;;;;;;;10.60;4.45;;;;;;;1.96;76.20;99058.78;4950525;29;20493;-77
2021/11/09 05:14:45;;;;;;;4.47;1.33;;;;;;;1.95;75.43;99070.13;4939487;28;20173;-75
2021/11/09 05:17:11;;;;;;;7.32;1.20;;;;;;;1.90;74.81;99077.38;4942926;28;20044;-77
2021/11/09 05:19:37;;;;;;;1.20;0.90;;;;;;;1.85;74.81;99085.41;4936462;28;20051;-79
2021/11/09 05:22:03;;;;;;;2.60;1.10;;;;;;;1.85;75.27;99090.63;4952688;28;20039;-75
2021/11/09 05:24:28;;;;;;;1.88;0.80;;;;;;;1.93;75.45;99103.25;4935847;29;20051;-81
2021/11/09 05:26:55;;;;;;;13.90;4.28;;;;;;;1.96;75.84;99113.56;4918253;29;20098;-78
2021/11/09 05:29:21;;;;;;;5.32;2.53;;;;;;;2.04;74.65;99111.38;4942050;28;20047;-79
2021/11/09 05:31:47;;;;;;;4.32;1.35;;;;;;;2.10;75.56;99124.13;4955152;29;20123;-79
2021/11/09 05:34:12;;;;;;;3.10;1.70;;;;;;;2.04;74.92;99127.03;4925033;28;20042;-78
2021/11/09 05:36:42;;;;;;;2.85;1.70;;;;;;;2.08;75.18;99138.16;4921598;29;20039;-77
2021/11/09 05:39:19;;;;;;;4.70;2.00;;;;;;;2.12;75.41;99144.94;4921461;29;20489;-78
2021/11/09 05:41:49;;;;;;;5.70;3.00;;;;;;;2.06;74.84;99156.50;4964628;28;20070;-77
2021/11/09 05:44:15;;;;;;;7.80;2.75;;;;;;;1.98;74.99;99158.66;4920818;29;20055;-78
2021/11/09 05:46:41;;;;;;;9.93;3.50;;;;;;;2.00;74.98;99167.25;4918006;29;20043;-82
2021/11/09 05:49:07;;;;;;;5.88;2.92;;;;;;;2.09;74.42;99176.38;4951318;29;20055;-76
2021/11/09 05:51:42;;;;;;;8.20;4.85;;;;;;;2.10;73.26;99178.88;4957488;28;20098;-77
2021/11/09 05:54:10;;;;;;;10.20;3.20;;;;;;;2.18;72.86;99185.50;4921539;29;20130;-75
2021/11/09 05:56:36;;;;;;;9.10;3.33;;;;;;;2.23;72.70;99189.56;4963531;28;20066;-76
2021/11/09 05:59:02;;;;;;;9.82;4.55;;;;;;;2.15;72.42;99201.31;4954588;28;20049;-75
2021/11/09 06:01:28;;;;;;;21.48;7.90;;;;;;;1.99;72.01;99212.50;4968973;28;20073;-76
2021/11/09 06:03:54;;;;;;;8.15;3.72;;;;;;;2.08;72.14;99222.50;4956932;28;20126;-76
2021/11/09 06:06:20;;;;;;;11.20;4.30;;;;;;;2.14;72.15;99223.09;4956421;28;20043;-75
2021/11/09 06:08:49;;;;;;;9.95;5.32;;;;;;;2.10;72.96;99231.06;4956461;28;20051;-76
2021/11/09 06:11:14;;;;;;;;;;;;;;;2.07;72.37;99231.22;4961863;28;20045;-78
2021/11/09 06:13:40;;;;;;;8.20;3.95;;;;;;;2.05;71.71;99240.88;4973282;28;19922;-75
2021/11/09 06:16:06;;;;;;;9.40;3.80;;;;;;;1.99;72.04;99246.41;4957592;29;20090;-74
2021/11/09 06:18:32;;;;;;;9.63;4.00;;;;;;;1.89;71.46;99258.19;4940224;29;20046;-75
2021/11/09 06:20:58;;;;;;;8.80;4.03;;;;;;;1.96;70.58;99259.59;4958196;28;20134;-79
2021/11/09 06:23:24;;;;;;;109.50;35.50;;;;;;;1.91;70.17;99256.38;4959213;29;20075;-82
2021/11/09 06:25:50;;;;;;;11.15;4.63;;;;;;;1.78;71.14;99261.31;4959017;28;20492;-76
2021/11/09 06:28:19;;;;;;;10.27;4.25;;;;;;;1.77;70.06;99260.47;4954461;28;20057;-77
2021/11/09 06:30:46;;;;;;;9.07;3.67;;;;;;;1.81;69.53;99279.44;4957301;28;20535;-79
2021/11/09 06:33:13;;;;;;;8.40;4.57;;;;;;;1.85;69.65;99298.38;4964394;28;20133;-75
2021/11/09 06:35:38;;;;;;;9.20;3.97;;;;;;;2.04;68.95;99299.19;4967025;28;20058;-75
2021/11/09 06:38:04;;;;;;;8.75;4.88;;;;;;;2.22;68.57;99312.28;4962141;28;20042;-76
2021/11/09 06:40:30;;;;;;;7.60;3.75;;;;;;;2.23;68.15;99309.59;4968705;28;20038;-80
2021/11/09 06:42:56;;;;;;;7.90;3.80;;;;;;;2.28;68.23;99316.34;4955281;28;20066;-74
2021/11/09 06:45:22;;;;;;;9.23;4.43;;;;;;;2.15;68.63;99321.31;4943010;28;20082;-74
2021/11/09 06:47:51;;;;;;;8.25;4.00;;;;;;;2.15;68.53;99326.53;4965287;28;20389;-76
2021/11/09 06:50:17;;;;;;;9.70;3.70;;;;;;;2.13;68.20;99325.75;4968466;28;20045;-75
2021/11/09 06:52:42;;;;;;;12.63;6.03;;;;;;;2.08;68.73;99331.19;4960607;28;20047;-77
2021/11/09 06:55:09;;;;;;;11.68;4.40;;;;;;;2.05;69.03;99337.38;4944607;29;20039;-76
2021/11/09 06:57:35;;;;;;;10.30;4.75;;;;;;;1.90;68.61;99351.16;4967086;28;20043;-73
2021/11/09 07:00:03;;;;;;;11.05;5.10;;;;;;;1.90;68.37;99353.78;4971428;28;20046;-75
2021/11/09 07:02:31;;;;;;;13.90;5.47;;;;;;;1.89;68.15;99367.72;4965360;28;20054;-77
2021/11/09 07:04:56;;;;;;;11.02;5.28;;;;;;;1.93;67.35;99379.69;4960376;28;20229;-74
2021/11/09 07:07:22;;;;;;;7.88;4.38;;;;;;;1.99;66.55;99387.22;4959892;28;20157;-78
2021/11/09 07:09:48;;;;;;;8.25;4.45;;;;;;;1.92;66.17;99394.50;4954639;28;20049;-79
2021/11/09 07:12:14;;;;;;;12.32;4.45;;;;;;;1.83;65.93;99399.28;4946907;28;20043;-75
2021/11/09 07:14:39;;;;;;;9.05;4.63;;;;;;;1.71;66.22;99401.53;4959961;28;20366;-76
2021/11/09 07:17:06;;;;;;;9.68;5.25;;;;;;;1.64;66.61;99405.34;4961795;28;20050;-74
2021/11/09 07:19:34;;;;;;;12.32;4.88;;;;;;;1.67;66.65;99414.78;4937893;28;20050;-74
2021/11/09 07:22:00;;;;;;;10.57;4.88;;;;;;;1.74;65.55;99409.22;4965871;28;20045;-76
2021/11/09 07:24:26;;;;;;;7.75;4.75;;;;;;;1.53;66.25;99425.81;4956613;28;20507;-78
2021/11/09 07:26:52;;;;;;;8.52;4.22;;;;;;;1.53;65.95;99433.63;4963974;28;20115;-76
2021/11/09 07:29:18;;;;;;;10.20;4.80;;;;;;;1.42;66.31;99442.78;4940358;29;20493;-76
2021/11/09 07:31:44;;;;;;;6.60;3.92;;;;;;;1.46;65.38;99453.91;4931601;29;20035;-78
2021/11/09 07:34:10;;;;;;;8.93;4.20;;;;;;;1.51;65.55;99466.72;4947076;29;20043;-82
2021/11/09 07:36:37;;;;;;;8.63;3.70;;;;;;;1.45;64.54;99468.69;4916231;29;20070;-77
2021/11/09 07:39:05;;;;;;;8.82;4.60;;;;;;;1.51;64.92;99477.16;4949797;28;20464;-77
2021/11/09 07:41:31;;;;;;;;;;;;;;;1.48;64.90;99477.28;4950846;29;20397;-80
2021/11/09 07:43:58;;;;;;;10.65;3.63;;;;;;;1.55;64.25;99494.38;4937232;29;19925;-80
2021/11/09 07:46:28;;;;;;;9.02;3.58;;;;;;;1.59;63.99;99512.41;4919648;29;20040;-75
2021/11/09 07:48:54;;;;;;;;;;;;;;;1.58;64.00;99509.84;4936427;29;20046;-79
2021/11/09 07:51:21;;;;;;;7.70;3.42;;;;;;;1.64;63.61;99525.25;4920046;29;19922;-78
2021/11/09 07:53:49;;;;;;;3.90;2.33;;;;;;;1.37;64.18;99525.50;4948280;29;20043;-79
2021/11/09 07:56:19;;;;;;;4.90;2.67;;;;;;;1.42;64.16;99526.16;4929195;29;20641;-76
2021/11/09 07:58:56;;;;;;;5.95;3.00;;;;;;;1.36;64.43;99538.56;4949158;28;20039;-72
2021/11/09 08:01:32;;;;;;;9.30;3.30;;;;;;;1.35;65.35;99544.72;4951452;28;20043;-78
2021/11/09 08:06:30;;;;;;;8.27;3.15;;;;;;;1.29;64.70;99562.28;4916511;29;20123;-77
2021/11/09 08:11:36;;;;;;;7.22;3.22;;;;;;;1.11;64.62;99563.88;4917713;29;20066;-77
2021/11/09 08:14:02;;;;;;;5.90;2.72;;;;;;;1.04;64.78;99585.84;4941729;28;20088;-79
2021/11/09 08:16:28;;;;;;;8.40;3.22;;;;;;;1.07;64.40;99587.50;4919195;29;20043;-77
2021/11/09 08:18:54;;;;;;;8.35;3.67;;;;;;;1.29;63.83;99593.53;4946190;29;20040;-77
2021/11/09 08:21:22;;;;;;;3.75;2.53;;;;;;;1.27;63.63;99591.91;4906609;29;20055;-77
2021/11/09 08:23:49;;;;;;;6.85;3.47;;;;;;;1.28;63.16;99597.06;4915890;29;20047;-78
2021/11/09 08:26:20;;;;;;;16.27;2.97;;;;;;;1.22;62.73;99612.94;4918320;29;20046;-77
2021/11/09 08:28:50;;;;;;;4.47;2.47;;;;;;;1.17;62.77;99617.47;4940416;28;20051;-77
2021/11/09 08:31:19;;;;;;;7.55;2.15;;;;;;;1.23;62.53;99624.22;4952205;28;20075;-78
2021/11/09 08:33:45;;;;;;;6.32;2.38;;;;;;;1.24;62.38;99637.16;4950990;28;20047;-75
2021/11/09 08:36:15;;;;;;;6.97;2.70;;;;;;;1.20;62.60;99632.16;4937646;29;20051;-74
2021/11/09 08:38:42;;;;;;;6.18;3.00;;;;;;;1.09;62.74;99649.03;4941343;28;20428;-75
2021/11/09 08:41:12;;;;;;;3.85;2.30;;;;;;;1.06;61.70;99643.94;4942782;28;20070;-75
2021/11/09 08:43:41;;;;;;;5.18;2.05;;;;;;;1.13;62.18;99653.22;4923173;28;20039;-76
2021/11/09 08:46:19;;;;;;;7.97;2.42;;;;;;;1.24;61.62;99668.44;4936665;28;20054;-78
2021/11/09 08:48:49;;;;;;;5.00;2.63;;;;;;;1.24;61.35;99667.59;4953429;29;20803;-78
2021/11/09 08:51:16;;;;;;;4.05;2.10;;;;;;;1.19;61.21;99686.00;4953946;28;20043;-80
2021/11/09 08:54:28;;;;;;;6.85;3.50;;;;;;;1.21;60.78;99692.00;4958163;28;20046;-77
2021/11/09 08:56:50;;;;;;;8.90;3.08;;;;;;;1.24;61.08;99693.63;4954878;28;20071;-78
2021/11/09 09:04:59;;;;;;;7.55;2.00;;;;;;;1.41;60.52;99717.28;4949014;29;20043;-79
2021/11/09 09:07:29;;;;;;;18.30;2.65;;;;;;;1.36;60.69;99719.22;4945409;29;20465;-78
2021/11/09 09:09:56;;;;;;;5.07;2.13;;;;;;;1.42;60.87;99723.34;4935551;29;20126;-78
2021/11/09 09:12:26;;;;;;;5.47;1.92;;;;;;;1.32;60.29;99728.06;4951916;29;20055;-78
2021/11/09 09:14:53;;;;;;;9.65;2.20;;;;;;;1.52;60.03;99736.88;4950634;28;20055;-76
2021/11/09 09:17:19;;;;;;;5.95;2.05;;;;;;;1.61;58.83;99733.91;4947670;28;20039;-77
2021/11/09 09:19:50;;;;;;;4.85;1.98;;;;;;;1.66;59.21;99726.75;4950618;28;20055;-77
2021/11/09 09:22:17;;;;;;;3.50;1.85;;;;;;;1.64;58.73;99741.59;4951034;29;20051;-79
2021/11/09 09:56:54;;;;;;;9.30;2.97;;;;;;;6.10;45.25;99776.22;4939610;29;20044;-76
2021/11/09 09:59:21;;;;;;;9.05;2.78;;;;;;;6.15;44.66;99786.47;4940825;29;20390;-77
2021/11/09 10:02:08;;;;;;;5.97;1.48;;;;;;;6.31;42.54;99784.66;4940080;28;20051;-76
2021/11/09 10:04:37;;;;;;;12.07;2.50;;;;;;;6.43;42.40;99782.25;4940986;29;20047;-78
2021/11/09 10:07:05;;;;;;;8.68;2.60;;;;;;;6.62;42.14;99793.38;4941732;29;20043;-78
2021/11/09 10:09:44;;;;;;;8.55;2.10;;;;;;;6.48;42.11;99790.72;4947507;28;20047;-79
2021/11/09 10:12:33;;;;;;;3.90;1.73;;;;;;;6.72;41.25;99800.72;4945826;29;20130;-81
2021/11/09 10:15:20;;;;;;;5.18;1.90;;;;;;;7.01;40.92;99808.66;4909037;29;20039;-77
2021/11/09 10:17:50;;;;;;;17.27;3.00;;;;;;;6.10;41.21;99812.16;4937009;29;20075;-76
2021/11/09 10:20:22;;;;;;;5.68;1.55;;;;;;;6.19;40.69;99816.03;4938311;29;20063;-78
2021/11/09 10:22:54;;;;;;;8.02;1.38;;;;;;;6.17;40.19;99829.25;4935575;29;20035;-76
2021/11/09 10:25:22;;;;;;;5.93;1.67;;;;;;;6.60;40.05;99832.06;4937104;29;20043;-78
2021/11/09 10:27:50;;;;;;;16.77;2.13;;;;;;;6.65;39.79;99829.13;4945747;29;20055;-79
2021/11/09 10:30:21;;;;;;;8.35;2.00;;;;;;;6.58;39.76;99833.91;4941689;29;20067;-77
2021/11/09 10:32:47;;;;;;;26.73;3.50;;;;;;;6.45;40.54;99843.44;4960669;28;20039;-80
2021/11/09 10:35:15;;;;;;;13.85;2.35;;;;;;;5.72;41.23;99863.19;4958727;29;20134;-79
2021/11/09 10:37:49;;;;;;;5.55;2.20;;;;;;;4.88;42.85;99863.19;4958989;29;20134;-77
2021/11/09 10:40:22;;;;;;;12.73;2.65;;;;;;;4.34;44.29;99880.59;4954094;28;20098;-81
2021/11/09 10:42:51;;;;;;;25.75;6.65;;;;;;;4.20;45.08;99877.81;4962091;28;20349;-79
2021/11/09 10:45:20;;;;;;;11.13;2.00;;;;;;;4.39;44.19;99877.78;4955014;28;20044;-77
2021/11/09 10:47:49;;;;;;;7.82;2.58;;;;;;;4.74;43.71;99879.59;4952751;28;20064;-77
2021/11/09 10:50:23;;;;;;;15.70;2.55;;;;;;;5.11;43.14;99896.94;4954154;28;20420;-77
2021/11/09 10:53:16;;;;;;;6.85;1.85;;;;;;;5.15;42.66;99898.47;4954639;28;20126;-78
2021/11/09 10:55:56;;;;;;;21.80;3.13;;;;;;;5.07;42.94;99907.66;4954305;28;20039;-77
2021/11/09 10:58:29;;;;;;;10.48;2.25;;;;;;;5.00;43.28;99915.81;4951619;29;20035;-78
2021/11/09 11:03:53;;;;;;;23.73;2.08;;;;;;;4.84;43.87;99928.00;4957034;28;20623;-77
2021/11/09 11:06:22;;;;;;;8.18;1.77;;;;;;;4.79;44.43;99922.97;4956072;28;20057;-79
2021/11/09 11:09:00;;;;;;;9.05;1.90;;;;;;;3.92;44.69;99941.88;4955411;28;20043;-79
2021/11/09 11:11:31;;;;;;;12.65;2.78;;;;;;;3.35;46.03;99942.63;4963977;28;20610;-78
2021/11/09 11:14:09;;;;;;;7.20;2.45;;;;;;;3.50;45.60;99940.25;4952910;28;20394;-77
2021/11/09 11:16:48;;;;;;;13.88;3.95;;;;;;;3.67;45.77;99961.28;4964285;28;20046;-76
2021/11/09 11:19:23;;;;;;;9.48;1.80;;;;;;;3.48;46.35;99960.41;4970897;28;20055;-79
2021/11/09 11:21:50;;;;;;;5.60;1.80;;;;;;;3.27;46.09;99976.06;4948805;28;20605;-76
2021/11/09 11:24:17;;;;;;;6.60;1.80;;;;;;;2.95;45.66;99985.25;4956126;28;20057;-78
2021/11/09 11:26:45;;;;;;;17.33;3.70;;;;;;;2.75;47.00;99987.75;4952829;28;20074;-77
2021/11/09 11:29:22;;;;;;;5.25;1.90;;;;;;;2.59;47.54;99991.84;4956061;28;20050;-77
2021/11/09 11:31:49;;;;;;;6.80;2.22;;;;;;;2.82;47.56;100003.19;4966375;28;20095;-78
2021/11/09 11:34:20;;;;;;;16.93;3.57;;;;;;;2.66;46.65;100011.59;4962172;28;20047;-79
2021/11/09 11:36:47;;;;;;;8.40;2.80;;;;;;;2.78;47.10;100025.09;4959260;28;20157;-77
2021/11/09 11:39:14;;;;;;;9.80;2.25;;;;;;;2.70;46.44;100023.63;4955473;28;20050;-79
2021/11/09 11:41:44;;;;;;;10.52;2.70;;;;;;;2.50;47.25;100034.00;4944227;28;20117;-78
2021/11/09 11:44:11;;;;;;;4.18;1.73;;;;;;;2.51;46.87;100030.47;4955885;28;20570;-77
2021/11/09 11:46:37;;;;;;;16.55;2.85;;;;;;;2.41;47.63;100036.03;4955328;28;20049;-78
2021/11/09 11:49:08;;;;;;;6.68;2.10;;;;;;;2.04;47.94;100044.38;4966681;28;20419;-77
2021/11/09 11:51:41;;;;;;;7.07;2.13;;;;;;;1.92;48.53;100050.91;4954254;29;20043;-79
2021/11/09 11:54:07;;;;;;;9.27;2.28;;;;;;;1.68;48.89;100063.84;4956791;28;20070;-79
2021/11/09 11:56:39;;;;;;;9.02;1.70;;;;;;;1.51;49.52;100048.78;4966293;28;20436;-79
2021/11/09 11:59:22;;;;;;;16.05;2.47;;;;;;;1.68;49.04;100071.66;4950663;28;20054;-81
2021/11/09 12:02:10;;;;;;;7.00;1.70;;;;;;;1.60;48.80;100078.91;4960027;28;20130;-77
2021/11/09 12:09:28;;;;;;;7.43;2.17;;;;;;;1.35;49.72;100099.72;4954921;28;20287;-80
2021/11/09 12:11:54;;;;;;;6.10;1.55;;;;;;;1.25;49.11;100106.97;4956253;28;20039;-76
2021/11/09 12:14:20;;;;;;;4.20;1.90;;;;;;;1.26;49.25;100111.28;4958768;28;20058;-78
2021/11/09 12:16:52;;;;;;;10.52;2.60;;;;;;;1.18;49.46;100123.69;4940451;28;20094;-77
2021/11/09 12:19:50;;;;;;;14.48;2.88;;;;;;;1.03;50.26;100133.69;4959941;28;20082;-79
2021/11/09 12:22:21;;;;;;;;;;;;;;;0.96;50.46;100134.78;4944840;29;20706;-77
2021/11/09 12:24:55;;;;;;;5.78;1.70;;;;;;;0.87;50.31;100137.66;4921896;29;19929;-78
2021/11/09 12:27:23;;;;;;;13.23;2.38;;;;;;;0.84;49.99;100154.22;4969203;28;20393;-75
2021/11/09 12:29:53;;;;;;;5.75;1.88;;;;;;;0.96;50.52;100153.84;4967301;28;20038;-76
2021/11/09 12:32:35;;;;;;;7.15;1.80;;;;;;;0.82;50.44;100160.38;4973666;28;20043;-77
2021/11/09 12:35:21;;;;;;;3.70;1.80;;;;;;;0.60;50.67;100166.19;4959051;28;20130;-78
2021/11/09 12:38:00;;;;;;;6.50;1.95;;;;;;;0.48;50.58;100176.03;4937201;29;20039;-78
2021/11/09 12:40:46;;;;;;;3.65;1.77;;;;;;;0.47;51.41;100179.53;4959651;28;20134;-78
2021/11/09 12:43:13;;;;;;;20.30;5.75;;;;;;;0.50;51.07;100170.78;4934452;28;20138;-78
2021/11/09 12:45:43;;;;;;;5.63;1.90;;;;;;;0.50;51.13;100183.81;4953330;28;20047;-79
2021/11/09 12:48:12;;;;;;;7.57;1.65;;;;;;;0.43;51.61;100192.66;4953525;29;20306;-80
2021/11/09 12:50:47;;;;;;;9.68;1.60;;;;;;;0.35;51.99;100192.88;4936458;28;20051;-82
2021/11/09 12:53:15;;;;;;;5.43;1.75;;;;;;;0.24;51.59;100202.72;4937059;29;20075;-79
2021/11/09 12:55:41;;;;;;;6.70;1.60;;;;;;;0.18;51.76;100210.69;4955172;28;20122;-81
2021/11/09 12:58:22;;;;;;;9.43;2.53;;;;;;;0.11;52.46;100213.44;4955008;29;20051;-80
2021/11/09 13:01:14;;;;;;;4.00;1.60;;;;;;;0.04;52.13;100219.69;4934853;28;20134;-79
2021/11/09 13:03:46;;;;;;;30.48;5.25;;;;;;;0.05;52.67;100231.78;4957017;28;20046;-82
2021/11/09 13:09:19;;;;;;;2.90;1.58;;;;;;;-0.17;53.37;100229.69;4907390;28;20137;-79
2021/11/09 13:11:50;;;;;;;8.75;1.65;;;;;;;-0.22;53.50;100233.31;4961560;28;20042;-84
2021/11/09 13:14:20;;;;;;;7.10;1.45;;;;;;;-0.32;54.14;100237.84;4930708;28;20039;-79
2021/11/09 13:16:51;;;;;;;11.68;2.60;;;;;;;-0.33;54.19;100237.00;4944531;28;20055;-78
2021/11/09 13:19:25;;;;;;;9.23;1.52;;;;;;;-0.39;55.04;100241.47;4965702;28;20037;-79
2021/11/09 13:22:07;;;;;;;10.50;2.13;;;;;;;-0.37;54.71;100237.13;4957912;28;20173;-79
2021/11/09 13:24:37;;;;;;;4.47;1.52;;;;;;;-0.42;55.28;100255.41;4947697;28;20050;-80
2021/11/09 13:27:04;;;;;;;4.53;1.75;;;;;;;-0.44;55.13;100254.56;4959241;28;20134;-80
2021/11/09 13:29:56;;;;;;;10.03;2.40;;;;;;;-0.52;55.52;100248.72;4924684;28;20047;-84
2021/11/09 13:32:23;;;;;;;9.30;2.50;;;;;;;-0.56;55.72;100266.09;4935366;29;20051;-79
2021/11/09 13:34:53;;;;;;;8.45;2.75;;;;;;;-0.61;56.47;100248.91;4937098;28;20472;-78
2021/11/09 13:37:22;;;;;;;8.77;2.75;;;;;;;-0.67;56.04;100265.47;4959426;28;20042;-77
2021/11/09 13:39:57;;;;;;;7.65;1.67;;;;;;;-0.68;56.80;100268.97;4955194;28;20044;-79
2021/11/09 13:42:26;;;;;;;10.13;1.92;;;;;;;-0.71;56.58;100280.28;4947347;28;20043;-77
2021/11/09 13:44:52;;;;;;;7.65;1.52;;;;;;;-0.72;56.42;100280.31;4957554;28;20519;-80
2021/11/09 13:47:32;;;;;;;8.18;1.40;;;;;;;-0.75;57.11;100291.59;4925123;28;20102;-79
2021/11/09 13:50:11;;;;;;;28.23;5.93;;;;;;;-0.75;57.15;100295.94;4952292;28;20074;-78
2021/11/09 13:52:47;;;;;;;;;;;;;;;-0.70;56.07;100304.50;4937816;28;20631;-81
2021/11/09 13:55:15;;;;;;;10.20;1.70;;;;;;;-0.77;56.58;100316.75;4936492;29;19958;-78
2021/11/09 13:57:41;;;;;;;11.50;1.48;;;;;;;-0.77;57.12;100308.09;4956934;28;20047;-76
2021/11/09 14:00:34;;;;;;;8.25;1.52;;;;;;;-0.78;56.93;100322.00;4911200;29;20055;-79
2021/11/09 14:03:17;;;;;;;5.45;2.33;;;;;;;-0.80;57.55;100334.97;4953953;28;20039;-78
2021/11/09 14:08:59;;;;;;;10.07;1.67;;;;;;;-0.78;57.63;100350.56;4957863;28;20062;-77
2021/11/09 14:18:56;;;;;;;7.50;1.98;;;;;;;-0.68;57.60;100365.06;4928614;28;20047;-78
2021/11/09 14:21:34;;;;;;;6.30;1.80;;;;;;;-0.67;57.18;100369.38;4946422;28;20044;-80
2021/11/09 14:24:24;;;;;;;5.20;1.38;;;;;;;-0.68;56.72;100367.66;4960942;28;20043;-78
2021/11/09 14:27:26;;;;;;;12.70;1.27;;;;;;;-0.75;56.80;100384.25;4962414;28;20515;-80